sensor_id;sensor_type;location;lat;lon;timestamp;P1;durP1;ratioP1;P2;durP2;ratioP2
21905;SDS011;11117;48.644;9.006;2023-06-14T00:00:27;9.33;;;6.00;;
21905;SDS011;11117;48.644;9.006;2023-06-14T00:02:52;7.73;;;5.83;;
21905;SDS011;11117;48.644;9.006;2023-06-14T00:05:18;8.43;;;5.67;;
21905;SDS011;11117;48.644;9.006;2023-06-14T00:07:43;11.47;;;6.00;;
21905;SDS011;11117;48.644;9.006;2023-06-14T00:10:12;9.70;;;5.63;;
21905;SDS011;11117;48.644;9.006;2023-06-14T00:12:38;9.93;;;5.90;;
21905;SDS011;11117;48.644;9.006;2023-06-14T00:15:03;11.40;;;5.40;;
21905;SDS011;11117;48.644;9.006;2023-06-14T00:17:30;10.83;;;6.03;;
21905;SDS011;11117;48.644;9.006;2023-06-14T00:19:56;9.50;;;5.57;;
21905;SDS011;11117;48.644;9.006;2023-06-14T00:22:24;12.27;;;6.43;;
21905;SDS011;11117;48.644;9.006;2023-06-14T00:24:51;8.00;;;5.97;;
21905;SDS011;11117;48.644;9.006;2023-06-14T00:27:17;9.73;;;5.87;;
21905;SDS011;11117;48.644;9.006;2023-06-14T00:29:43;9.90;;;6.40;;
21905;SDS011;11117;48.644;9.006;2023-06-14T00:32:08;7.20;;;5.50;;
21905;SDS011;11117;48.644;9.006;2023-06-14T00:34:34;14.53;;;6.20;;
21905;SDS011;11117;48.644;9.006;2023-06-14T00:37:00;9.50;;;6.90;;
21905;SDS011;11117;48.644;9.006;2023-06-14T00:39:26;12.57;;;6.40;;
21905;SDS011;11117;48.644;9.006;2023-06-14T00:41:52;10.20;;;6.27;;
21905;SDS011;11117;48.644;9.006;2023-06-14T00:44:18;12.07;;;6.03;;
21905;SDS011;11117;48.644;9.006;2023-06-14T00:46:45;13.50;;;6.37;;
21905;SDS011;11117;48.644;9.006;2023-06-14T00:49:11;8.23;;;6.00;;
21905;SDS011;11117;48.644;9.006;2023-06-14T00:51:39;12.03;;;6.37;;
21905;SDS011;11117;48.644;9.006;2023-06-14T00:54:05;9.87;;;5.40;;
21905;SDS011;11117;48.644;9.006;2023-06-14T00:56:30;9.70;;;6.00;;
21905;SDS011;11117;48.644;9.006;2023-06-14T00:58:56;8.27;;;6.07;;
21905;SDS011;11117;48.644;9.006;2023-06-14T01:01:22;8.23;;;5.77;;
21905;SDS011;11117;48.644;9.006;2023-06-14T01:03:48;7.10;;;6.03;;
21905;SDS011;11117;48.644;9.006;2023-06-14T01:09:31;9.07;;;5.90;;
21905;SDS011;11117;48.644;9.006;2023-06-14T01:12:15;7.73;;;6.00;;
21905;SDS011;11117;48.644;9.006;2023-06-14T01:14:49;11.33;;;6.27;;
21905;SDS011;11117;48.644;9.006;2023-06-14T01:17:16;9.40;;;5.90;;
21905;SDS011;11117;48.644;9.006;2023-06-14T01:19:42;9.83;;;6.23;;
21905;SDS011;11117;48.644;9.006;2023-06-14T01:22:08;13.67;;;6.40;;
21905;SDS011;11117;48.644;9.006;2023-06-14T01:24:34;11.17;;;6.40;;
21905;SDS011;11117;48.644;9.006;2023-06-14T01:27:00;8.50;;;5.90;;
21905;SDS011;11117;48.644;9.006;2023-06-14T01:29:27;7.10;;;5.33;;
21905;SDS011;11117;48.644;9.006;2023-06-14T01:31:54;11.87;;;6.17;;
21905;SDS011;11117;48.644;9.006;2023-06-14T01:34:20;9.70;;;6.13;;
21905;SDS011;11117;48.644;9.006;2023-06-14T01:36:45;15.87;;;6.97;;
21905;SDS011;11117;48.644;9.006;2023-06-14T01:39:13;11.23;;;6.10;;
21905;SDS011;11117;48.644;9.006;2023-06-14T01:41:40;10.90;;;6.20;;
21905;SDS011;11117;48.644;9.006;2023-06-14T01:44:06;8.97;;;6.50;;
21905;SDS011;11117;48.644;9.006;2023-06-14T01:46:32;11.93;;;6.57;;
21905;SDS011;11117;48.644;9.006;2023-06-14T01:48:58;9.93;;;6.27;;
21905;SDS011;11117;48.644;9.006;2023-06-14T01:51:24;14.03;;;6.30;;
21905;SDS011;11117;48.644;9.006;2023-06-14T01:53:49;10.53;;;6.70;;
21905;SDS011;11117;48.644;9.006;2023-06-14T01:56:15;10.60;;;6.20;;
21905;SDS011;11117;48.644;9.006;2023-06-14T01:58:41;9.93;;;6.67;;
21905;SDS011;11117;48.644;9.006;2023-06-14T02:01:06;11.10;;;6.30;;
21905;SDS011;11117;48.644;9.006;2023-06-14T02:03:32;10.20;;;6.50;;
21905;SDS011;11117;48.644;9.006;2023-06-14T02:05:58;13.17;;;6.27;;
21905;SDS011;11117;48.644;9.006;2023-06-14T02:08:24;9.60;;;6.27;;
21905;SDS011;11117;48.644;9.006;2023-06-14T02:10:49;9.70;;;6.67;;
21905;SDS011;11117;48.644;9.006;2023-06-14T02:13:15;10.17;;;6.07;;
21905;SDS011;11117;48.644;9.006;2023-06-14T02:15:40;11.93;;;6.63;;
21905;SDS011;11117;48.644;9.006;2023-06-14T02:18:06;15.07;;;6.47;;
21905;SDS011;11117;48.644;9.006;2023-06-14T02:20:32;15.90;;;6.27;;
21905;SDS011;11117;48.644;9.006;2023-06-14T02:22:57;9.27;;;6.30;;
21905;SDS011;11117;48.644;9.006;2023-06-14T02:25:23;12.83;;;6.23;;
21905;SDS011;11117;48.644;9.006;2023-06-14T02:27:48;11.17;;;6.50;;
21905;SDS011;11117;48.644;9.006;2023-06-14T02:30:14;9.13;;;6.50;;
21905;SDS011;11117;48.644;9.006;2023-06-14T02:32:40;9.67;;;6.50;;
21905;SDS011;11117;48.644;9.006;2023-06-14T02:35:05;11.00;;;6.63;;
21905;SDS011;11117;48.644;9.006;2023-06-14T02:37:32;9.20;;;6.73;;
21905;SDS011;11117;48.644;9.006;2023-06-14T02:39:58;8.90;;;6.87;;
21905;SDS011;11117;48.644;9.006;2023-06-14T02:42:24;8.97;;;6.50;;
21905;SDS011;11117;48.644;9.006;2023-06-14T02:44:49;12.10;;;6.90;;
21905;SDS011;11117;48.644;9.006;2023-06-14T02:47:15;12.13;;;8.00;;
21905;SDS011;11117;48.644;9.006;2023-06-14T02:49:40;10.43;;;7.10;;
21905;SDS011;11117;48.644;9.006;2023-06-14T02:52:06;12.67;;;7.00;;
21905;SDS011;11117;48.644;9.006;2023-06-14T02:54:35;13.80;;;7.07;;
21905;SDS011;11117;48.644;9.006;2023-06-14T02:57:00;10.73;;;6.83;;
21905;SDS011;11117;48.644;9.006;2023-06-14T02:59:26;12.23;;;7.07;;
21905;SDS011;11117;48.644;9.006;2023-06-14T03:01:52;11.33;;;7.43;;
21905;SDS011;11117;48.644;9.006;2023-06-14T03:04:17;9.80;;;6.97;;
21905;SDS011;11117;48.644;9.006;2023-06-14T03:06:43;16.47;;;7.13;;
21905;SDS011;11117;48.644;9.006;2023-06-14T03:09:08;12.03;;;7.53;;
21905;SDS011;11117;48.644;9.006;2023-06-14T03:11:34;14.10;;;7.67;;
21905;SDS011;11117;48.644;9.006;2023-06-14T03:13:59;16.97;;;8.20;;
21905;SDS011;11117;48.644;9.006;2023-06-14T03:16:25;9.97;;;7.07;;
21905;SDS011;11117;48.644;9.006;2023-06-14T03:18:51;10.43;;;7.20;;
21905;SDS011;11117;48.644;9.006;2023-06-14T03:21:17;11.77;;;7.00;;
21905;SDS011;11117;48.644;9.006;2023-06-14T03:23:46;12.27;;;7.43;;
21905;SDS011;11117;48.644;9.006;2023-06-14T03:26:12;12.33;;;7.10;;
21905;SDS011;11117;48.644;9.006;2023-06-14T03:28:38;15.63;;;7.50;;
21905;SDS011;11117;48.644;9.006;2023-06-14T03:31:04;11.23;;;7.03;;
21905;SDS011;11117;48.644;9.006;2023-06-14T03:33:30;10.10;;;7.17;;
21905;SDS011;11117;48.644;9.006;2023-06-14T03:35:55;12.70;;;7.27;;
21905;SDS011;11117;48.644;9.006;2023-06-14T03:38:21;11.90;;;6.80;;
21905;SDS011;11117;48.644;9.006;2023-06-14T03:40:46;11.67;;;6.90;;
21905;SDS011;11117;48.644;9.006;2023-06-14T03:43:12;13.27;;;7.13;;
21905;SDS011;11117;48.644;9.006;2023-06-14T03:45:37;9.83;;;6.43;;
21905;SDS011;11117;48.644;9.006;2023-06-14T03:48:03;12.17;;;6.97;;
21905;SDS011;11117;48.644;9.006;2023-06-14T03:50:29;10.80;;;6.90;;
21905;SDS011;11117;48.644;9.006;2023-06-14T03:52:54;13.97;;;7.47;;
21905;SDS011;11117;48.644;9.006;2023-06-14T03:55:20;9.73;;;7.03;;
21905;SDS011;11117;48.644;9.006;2023-06-14T03:57:45;10.67;;;6.80;;
21905;SDS011;11117;48.644;9.006;2023-06-14T04:00:11;9.20;;;6.77;;
21905;SDS011;11117;48.644;9.006;2023-06-14T04:02:37;10.17;;;6.83;;
21905;SDS011;11117;48.644;9.006;2023-06-14T04:05:03;12.37;;;7.20;;
21905;SDS011;11117;48.644;9.006;2023-06-14T04:07:28;13.33;;;7.00;;
21905;SDS011;11117;48.644;9.006;2023-06-14T04:09:54;13.30;;;7.13;;
21905;SDS011;11117;48.644;9.006;2023-06-14T04:12:20;10.87;;;6.90;;
21905;SDS011;11117;48.644;9.006;2023-06-14T04:14:46;10.27;;;6.73;;
21905;SDS011;11117;48.644;9.006;2023-06-14T04:17:11;9.20;;;6.90;;
21905;SDS011;11117;48.644;9.006;2023-06-14T04:19:37;9.63;;;6.93;;
21905;SDS011;11117;48.644;9.006;2023-06-14T04:22:02;14.07;;;7.17;;
21905;SDS011;11117;48.644;9.006;2023-06-14T04:24:29;9.33;;;7.00;;
21905;SDS011;11117;48.644;9.006;2023-06-14T04:26:58;10.73;;;6.60;;
21905;SDS011;11117;48.644;9.006;2023-06-14T04:29:24;9.67;;;6.63;;
21905;SDS011;11117;48.644;9.006;2023-06-14T04:31:50;21.33;;;6.63;;
21905;SDS011;11117;48.644;9.006;2023-06-14T04:34:16;9.03;;;6.30;;
21905;SDS011;11117;48.644;9.006;2023-06-14T04:36:42;10.17;;;6.30;;
21905;SDS011;11117;48.644;9.006;2023-06-14T04:39:07;11.63;;;6.17;;
21905;SDS011;11117;48.644;9.006;2023-06-14T04:41:33;11.53;;;6.43;;
21905;SDS011;11117;48.644;9.006;2023-06-14T04:43:59;7.80;;;5.70;;
21905;SDS011;11117;48.644;9.006;2023-06-14T04:46:25;12.60;;;6.10;;
21905;SDS011;11117;48.644;9.006;2023-06-14T04:48:51;10.90;;;6.57;;
21905;SDS011;11117;48.644;9.006;2023-06-14T04:51:16;9.10;;;5.97;;
21905;SDS011;11117;48.644;9.006;2023-06-14T04:53:42;9.45;;;5.57;;
21905;SDS011;11117;48.644;9.006;2023-06-14T04:56:07;8.17;;;6.07;;
21905;SDS011;11117;48.644;9.006;2023-06-14T04:58:33;7.70;;;6.10;;
21905;SDS011;11117;48.644;9.006;2023-06-14T05:00:59;9.38;;;5.75;;
21905;SDS011;11117;48.644;9.006;2023-06-14T05:03:25;11.43;;;6.10;;
21905;SDS011;11117;48.644;9.006;2023-06-14T05:05:51;9.40;;;5.80;;
21905;SDS011;11117;48.644;9.006;2023-06-14T05:08:16;11.20;;;5.78;;
21905;SDS011;11117;48.644;9.006;2023-06-14T05:10:42;8.43;;;5.97;;
21905;SDS011;11117;48.644;9.006;2023-06-14T05:13:07;13.98;;;5.88;;
21905;SDS011;11117;48.644;9.006;2023-06-14T05:15:33;12.27;;;6.10;;
21905;SDS011;11117;48.644;9.006;2023-06-14T05:17:58;10.98;;;6.07;;
21905;SDS011;11117;48.644;9.006;2023-06-14T05:20:24;17.38;;;6.15;;
21905;SDS011;11117;48.644;9.006;2023-06-14T05:22:53;6.88;;;5.82;;
21905;SDS011;11117;48.644;9.006;2023-06-14T05:25:22;13.95;;;6.45;;
21905;SDS011;11117;48.644;9.006;2023-06-14T05:27:48;8.85;;;5.30;;
21905;SDS011;11117;48.644;9.006;2023-06-14T05:30:14;14.13;;;5.65;;
21905;SDS011;11117;48.644;9.006;2023-06-14T05:32:40;17.45;;;6.25;;
21905;SDS011;11117;48.644;9.006;2023-06-14T05:35:06;6.68;;;5.50;;
21905;SDS011;11117;48.644;9.006;2023-06-14T05:37:32;10.07;;;5.40;;
21905;SDS011;11117;48.644;9.006;2023-06-14T05:39:57;10.70;;;5.85;;
21905;SDS011;11117;48.644;9.006;2023-06-14T05:42:23;9.27;;;5.57;;
21905;SDS011;11117;48.644;9.006;2023-06-14T05:44:48;9.95;;;5.68;;
21905;SDS011;11117;48.644;9.006;2023-06-14T05:47:16;10.77;;;6.00;;
21905;SDS011;11117;48.644;9.006;2023-06-14T05:49:42;15.75;;;5.57;;
21905;SDS011;11117;48.644;9.006;2023-06-14T05:52:08;12.15;;;5.32;;
21905;SDS011;11117;48.644;9.006;2023-06-14T05:54:34;10.30;;;4.65;;
21905;SDS011;11117;48.644;9.006;2023-06-14T05:57:00;11.80;;;4.88;;
21905;SDS011;11117;48.644;9.006;2023-06-14T05:59:25;6.70;;;5.10;;
21905;SDS011;11117;48.644;9.006;2023-06-14T06:01:51;8.77;;;4.90;;
21905;SDS011;11117;48.644;9.006;2023-06-14T06:04:17;9.15;;;4.60;;
21905;SDS011;11117;48.644;9.006;2023-06-14T06:06:42;7.40;;;4.60;;
21905;SDS011;11117;48.644;9.006;2023-06-14T06:09:08;11.13;;;4.68;;
21905;SDS011;11117;48.644;9.006;2023-06-14T06:11:33;7.82;;;4.50;;
21905;SDS011;11117;48.644;9.006;2023-06-14T06:13:59;12.13;;;4.80;;
21905;SDS011;11117;48.644;9.006;2023-06-14T06:16:24;9.93;;;4.75;;
21905;SDS011;11117;48.644;9.006;2023-06-14T06:18:50;8.93;;;4.80;;
21905;SDS011;11117;48.644;9.006;2023-06-14T06:21:15;10.52;;;4.90;;
21905;SDS011;11117;48.644;9.006;2023-06-14T06:23:41;9.82;;;5.07;;
21905;SDS011;11117;48.644;9.006;2023-06-14T06:26:06;5.85;;;4.18;;
21905;SDS011;11117;48.644;9.006;2023-06-14T06:28:32;15.00;;;5.10;;
21905;SDS011;11117;48.644;9.006;2023-06-14T06:30:57;6.28;;;4.57;;
21905;SDS011;11117;48.644;9.006;2023-06-14T06:33:23;5.47;;;4.20;;
21905;SDS011;11117;48.644;9.006;2023-06-14T06:35:48;6.22;;;4.30;;
21905;SDS011;11117;48.644;9.006;2023-06-14T06:38:14;6.40;;;4.18;;
21905;SDS011;11117;48.644;9.006;2023-06-14T06:40:39;9.32;;;4.40;;
21905;SDS011;11117;48.644;9.006;2023-06-14T06:43:05;10.07;;;4.47;;
21905;SDS011;11117;48.644;9.006;2023-06-14T06:45:30;9.27;;;5.05;;
21905;SDS011;11117;48.644;9.006;2023-06-14T06:47:56;6.13;;;4.43;;
21905;SDS011;11117;48.644;9.006;2023-06-14T06:50:21;9.60;;;4.95;;
21905;SDS011;11117;48.644;9.006;2023-06-14T06:52:47;12.30;;;5.05;;
21905;SDS011;11117;48.644;9.006;2023-06-14T06:55:12;10.95;;;5.10;;
21905;SDS011;11117;48.644;9.006;2023-06-14T06:57:38;10.82;;;5.25;;
21905;SDS011;11117;48.644;9.006;2023-06-14T07:00:04;9.82;;;4.70;;
21905;SDS011;11117;48.644;9.006;2023-06-14T07:02:30;11.73;;;5.32;;
21905;SDS011;11117;48.644;9.006;2023-06-14T07:04:55;8.05;;;4.90;;
21905;SDS011;11117;48.644;9.006;2023-06-14T07:07:21;10.40;;;4.75;;
21905;SDS011;11117;48.644;9.006;2023-06-14T07:09:46;11.15;;;4.85;;
21905;SDS011;11117;48.644;9.006;2023-06-14T07:12:12;24.23;;;5.97;;
21905;SDS011;11117;48.644;9.006;2023-06-14T07:14:37;17.50;;;6.20;;
21905;SDS011;11117;48.644;9.006;2023-06-14T07:17:03;12.57;;;4.93;;
21905;SDS011;11117;48.644;9.006;2023-06-14T07:19:29;15.98;;;5.78;;
21905;SDS011;11117;48.644;9.006;2023-06-14T07:21:54;11.90;;;4.80;;
21905;SDS011;11117;48.644;9.006;2023-06-14T07:24:20;10.00;;;4.72;;
21905;SDS011;11117;48.644;9.006;2023-06-14T07:26:45;6.43;;;4.70;;
21905;SDS011;11117;48.644;9.006;2023-06-14T07:29:11;7.28;;;4.50;;
21905;SDS011;11117;48.644;9.006;2023-06-14T07:31:37;54.75;;;7.43;;
21905;SDS011;11117;48.644;9.006;2023-06-14T07:34:02;35.40;;;6.50;;
21905;SDS011;11117;48.644;9.006;2023-06-14T07:36:28;16.77;;;5.68;;
21905;SDS011;11117;48.644;9.006;2023-06-14T07:38:53;15.40;;;5.20;;
21905;SDS011;11117;48.644;9.006;2023-06-14T07:41:19;7.75;;;4.43;;
21905;SDS011;11117;48.644;9.006;2023-06-14T07:43:44;9.95;;;4.00;;
21905;SDS011;11117;48.644;9.006;2023-06-14T07:46:10;7.63;;;4.25;;
21905;SDS011;11117;48.644;9.006;2023-06-14T07:48:35;9.60;;;4.32;;
21905;SDS011;11117;48.644;9.006;2023-06-14T07:51:01;11.02;;;4.40;;
21905;SDS011;11117;48.644;9.006;2023-06-14T07:53:27;8.48;;;4.50;;
21905;SDS011;11117;48.644;9.006;2023-06-14T07:55:52;12.77;;;4.20;;
21905;SDS011;11117;48.644;9.006;2023-06-14T07:58:18;11.00;;;5.07;;
21905;SDS011;11117;48.644;9.006;2023-06-14T08:00:43;6.88;;;4.80;;
21905;SDS011;11117;48.644;9.006;2023-06-14T08:03:09;10.00;;;4.32;;
21905;SDS011;11117;48.644;9.006;2023-06-14T08:05:34;10.30;;;4.07;;
21905;SDS011;11117;48.644;9.006;2023-06-14T08:08:00;10.13;;;5.10;;
21905;SDS011;11117;48.644;9.006;2023-06-14T08:10:26;5.25;;;4.25;;
21905;SDS011;11117;48.644;9.006;2023-06-14T08:12:52;7.30;;;4.63;;
21905;SDS011;11117;48.644;9.006;2023-06-14T08:15:17;5.13;;;4.40;;
21905;SDS011;11117;48.644;9.006;2023-06-14T08:17:43;5.82;;;4.47;;
21905;SDS011;11117;48.644;9.006;2023-06-14T08:20:09;11.05;;;4.57;;
21905;SDS011;11117;48.644;9.006;2023-06-14T08:22:35;12.70;;;5.22;;
21905;SDS011;11117;48.644;9.006;2023-06-14T08:25:00;9.20;;;4.50;;
21905;SDS011;11117;48.644;9.006;2023-06-14T08:27:26;14.77;;;4.55;;
21905;SDS011;11117;48.644;9.006;2023-06-14T08:29:52;14.63;;;5.55;;
21905;SDS011;11117;48.644;9.006;2023-06-14T08:32:17;12.05;;;5.00;;
21905;SDS011;11117;48.644;9.006;2023-06-14T08:34:43;10.77;;;4.70;;
21905;SDS011;11117;48.644;9.006;2023-06-14T08:37:09;15.00;;;4.68;;
21905;SDS011;11117;48.644;9.006;2023-06-14T08:39:34;7.55;;;4.45;;
21905;SDS011;11117;48.644;9.006;2023-06-14T08:42:01;8.23;;;4.70;;
21905;SDS011;11117;48.644;9.006;2023-06-14T08:44:28;6.63;;;4.70;;
21905;SDS011;11117;48.644;9.006;2023-06-14T08:46:55;8.38;;;4.43;;
21905;SDS011;11117;48.644;9.006;2023-06-14T08:49:21;8.75;;;4.68;;
21905;SDS011;11117;48.644;9.006;2023-06-14T08:51:47;7.30;;;5.07;;
21905;SDS011;11117;48.644;9.006;2023-06-14T08:54:20;9.57;;;4.43;;
21905;SDS011;11117;48.644;9.006;2023-06-14T08:56:45;7.25;;;4.30;;
21905;SDS011;11117;48.644;9.006;2023-06-14T08:59:11;10.10;;;4.40;;
21905;SDS011;11117;48.644;9.006;2023-06-14T09:01:38;13.85;;;5.00;;
21905;SDS011;11117;48.644;9.006;2023-06-14T09:04:03;10.48;;;4.57;;
21905;SDS011;11117;48.644;9.006;2023-06-14T09:06:29;12.18;;;5.00;;
21905;SDS011;11117;48.644;9.006;2023-06-14T09:08:55;13.52;;;4.70;;
21905;SDS011;11117;48.644;9.006;2023-06-14T09:11:20;11.05;;;4.70;;
21905;SDS011;11117;48.644;9.006;2023-06-14T09:13:46;10.23;;;4.72;;
21905;SDS011;11117;48.644;9.006;2023-06-14T09:16:14;11.75;;;4.75;;
21905;SDS011;11117;48.644;9.006;2023-06-14T09:18:41;9.02;;;4.60;;
21905;SDS011;11117;48.644;9.006;2023-06-14T09:21:08;11.45;;;4.28;;
21905;SDS011;11117;48.644;9.006;2023-06-14T09:23:44;8.02;;;4.72;;
21905;SDS011;11117;48.644;9.006;2023-06-14T09:26:15;10.88;;;4.88;;
21905;SDS011;11117;48.644;9.006;2023-06-14T09:28:45;10.60;;;5.05;;
21905;SDS011;11117;48.644;9.006;2023-06-14T09:31:15;10.55;;;4.60;;
21905;SDS011;11117;48.644;9.006;2023-06-14T09:33:45;8.73;;;4.90;;
21905;SDS011;11117;48.644;9.006;2023-06-14T09:36:12;7.45;;;4.50;;
21905;SDS011;11117;48.644;9.006;2023-06-14T09:38:40;12.73;;;4.93;;
21905;SDS011;11117;48.644;9.006;2023-06-14T09:41:06;8.80;;;4.80;;
21905;SDS011;11117;48.644;9.006;2023-06-14T09:43:31;7.60;;;4.93;;
21905;SDS011;11117;48.644;9.006;2023-06-14T09:45:58;6.50;;;4.40;;
21905;SDS011;11117;48.644;9.006;2023-06-14T09:48:25;12.35;;;4.68;;
21905;SDS011;11117;48.644;9.006;2023-06-14T09:50:51;9.68;;;5.07;;
21905;SDS011;11117;48.644;9.006;2023-06-14T09:53:20;11.77;;;4.72;;
21905;SDS011;11117;48.644;9.006;2023-06-14T09:55:46;9.48;;;4.80;;
21905;SDS011;11117;48.644;9.006;2023-06-14T09:58:14;16.70;;;4.70;;
21905;SDS011;11117;48.644;9.006;2023-06-14T10:00:44;6.88;;;4.07;;
21905;SDS011;11117;48.644;9.006;2023-06-14T10:05:39;5.28;;;4.45;;
21905;SDS011;11117;48.644;9.006;2023-06-14T10:08:09;10.68;;;4.93;;
21905;SDS011;11117;48.644;9.006;2023-06-14T10:10:39;9.85;;;5.13;;
21905;SDS011;11117;48.644;9.006;2023-06-14T10:13:04;7.63;;;4.88;;
21905;SDS011;11117;48.644;9.006;2023-06-14T10:15:45;8.00;;;4.53;;
21905;SDS011;11117;48.644;9.006;2023-06-14T10:18:23;11.80;;;4.40;;
21905;SDS011;11117;48.644;9.006;2023-06-14T10:21:03;8.90;;;4.22;;
21905;SDS011;11117;48.644;9.006;2023-06-14T10:23:50;9.43;;;3.90;;
21905;SDS011;11117;48.644;9.006;2023-06-14T10:26:19;11.25;;;4.40;;
21905;SDS011;11117;48.644;9.006;2023-06-14T10:28:55;7.60;;;4.70;;
21905;SDS011;11117;48.644;9.006;2023-06-14T10:34:11;10.98;;;4.50;;
21905;SDS011;11117;48.644;9.006;2023-06-14T10:36:41;7.07;;;4.55;;
21905;SDS011;11117;48.644;9.006;2023-06-14T10:39:08;11.50;;;4.57;;
21905;SDS011;11117;48.644;9.006;2023-06-14T10:41:40;7.25;;;4.40;;
21905;SDS011;11117;48.644;9.006;2023-06-14T10:46:38;9.38;;;4.28;;
21905;SDS011;11117;48.644;9.006;2023-06-14T10:49:17;12.52;;;4.28;;
21905;SDS011;11117;48.644;9.006;2023-06-14T10:52:02;6.55;;;3.95;;
21905;SDS011;11117;48.644;9.006;2023-06-14T10:54:28;6.75;;;4.95;;
21905;SDS011;11117;48.644;9.006;2023-06-14T10:56:53;10.75;;;4.80;;
21905;SDS011;11117;48.644;9.006;2023-06-14T10:59:20;11.18;;;4.40;;
21905;SDS011;11117;48.644;9.006;2023-06-14T11:04:49;11.55;;;5.13;;
21905;SDS011;11117;48.644;9.006;2023-06-14T11:13:06;8.73;;;4.95;;
21905;SDS011;11117;48.644;9.006;2023-06-14T11:15:36;11.38;;;5.15;;
21905;SDS011;11117;48.644;9.006;2023-06-14T11:18:02;10.20;;;4.60;;
21905;SDS011;11117;48.644;9.006;2023-06-14T11:20:34;6.18;;;4.40;;
21905;SDS011;11117;48.644;9.006;2023-06-14T11:23:01;5.68;;;4.47;;
21905;SDS011;11117;48.644;9.006;2023-06-14T11:25:27;10.50;;;4.32;;
21905;SDS011;11117;48.644;9.006;2023-06-14T11:27:52;12.63;;;4.65;;
21905;SDS011;11117;48.644;9.006;2023-06-14T11:30:18;6.70;;;4.70;;
21905;SDS011;11117;48.644;9.006;2023-06-14T11:32:47;6.28;;;4.45;;
21905;SDS011;11117;48.644;9.006;2023-06-14T11:35:14;7.05;;;4.78;;
21905;SDS011;11117;48.644;9.006;2023-06-14T11:37:41;10.25;;;4.70;;
21905;SDS011;11117;48.644;9.006;2023-06-14T11:40:07;7.80;;;4.22;;
21905;SDS011;11117;48.644;9.006;2023-06-14T11:42:33;13.23;;;4.32;;
21905;SDS011;11117;48.644;9.006;2023-06-14T11:44:59;9.85;;;5.20;;
21905;SDS011;11117;48.644;9.006;2023-06-14T11:47:30;9.98;;;4.80;;
21905;SDS011;11117;48.644;9.006;2023-06-14T11:49:58;10.60;;;4.00;;
21905;SDS011;11117;48.644;9.006;2023-06-14T11:52:24;5.78;;;4.15;;
21905;SDS011;11117;48.644;9.006;2023-06-14T11:54:49;7.55;;;4.45;;
21905;SDS011;11117;48.644;9.006;2023-06-14T11:57:15;7.05;;;4.55;;
21905;SDS011;11117;48.644;9.006;2023-06-14T11:59:43;12.90;;;4.82;;
21905;SDS011;11117;48.644;9.006;2023-06-14T12:02:10;6.07;;;4.38;;
21905;SDS011;11117;48.644;9.006;2023-06-14T12:04:42;6.53;;;4.43;;
21905;SDS011;11117;48.644;9.006;2023-06-14T12:07:08;8.18;;;4.32;;
21905;SDS011;11117;48.644;9.006;2023-06-14T12:09:35;9.95;;;4.15;;
21905;SDS011;11117;48.644;9.006;2023-06-14T12:12:00;13.00;;;4.82;;
21905;SDS011;11117;48.644;9.006;2023-06-14T12:14:29;9.65;;;4.50;;
21905;SDS011;11117;48.644;9.006;2023-06-14T12:17:03;12.30;;;4.55;;
21905;SDS011;11117;48.644;9.006;2023-06-14T12:19:30;9.63;;;4.50;;
21905;SDS011;11117;48.644;9.006;2023-06-14T12:21:55;7.05;;;4.60;;
21905;SDS011;11117;48.644;9.006;2023-06-14T12:24:27;7.72;;;4.60;;
21905;SDS011;11117;48.644;9.006;2023-06-14T12:26:53;8.50;;;4.38;;
21905;SDS011;11117;48.644;9.006;2023-06-14T12:29:19;9.05;;;4.40;;
21905;SDS011;11117;48.644;9.006;2023-06-14T12:31:44;7.97;;;4.25;;
21905;SDS011;11117;48.644;9.006;2023-06-14T12:34:10;6.30;;;4.60;;
21905;SDS011;11117;48.644;9.006;2023-06-14T12:36:38;12.93;;;4.97;;
21905;SDS011;11117;48.644;9.006;2023-06-14T12:39:03;5.60;;;4.70;;
21905;SDS011;11117;48.644;9.006;2023-06-14T12:41:29;6.30;;;4.25;;
21905;SDS011;11117;48.644;9.006;2023-06-14T12:43:54;7.10;;;4.05;;
21905;SDS011;11117;48.644;9.006;2023-06-14T12:46:20;5.82;;;4.10;;
21905;SDS011;11117;48.644;9.006;2023-06-14T12:48:45;8.60;;;4.47;;
21905;SDS011;11117;48.644;9.006;2023-06-14T12:51:11;6.75;;;3.80;;
21905;SDS011;11117;48.644;9.006;2023-06-14T12:53:37;6.53;;;4.30;;
21905;SDS011;11117;48.644;9.006;2023-06-14T12:56:02;8.25;;;4.38;;
21905;SDS011;11117;48.644;9.006;2023-06-14T12:58:28;6.55;;;4.28;;
21905;SDS011;11117;48.644;9.006;2023-06-14T13:00:53;7.97;;;4.38;;
21905;SDS011;11117;48.644;9.006;2023-06-14T13:03:19;9.32;;;4.00;;
21905;SDS011;11117;48.644;9.006;2023-06-14T13:05:44;7.40;;;4.20;;
21905;SDS011;11117;48.644;9.006;2023-06-14T13:08:10;6.30;;;4.03;;
21905;SDS011;11117;48.644;9.006;2023-06-14T13:10:35;7.57;;;3.90;;
21905;SDS011;11117;48.644;9.006;2023-06-14T13:13:01;4.32;;;3.92;;
21905;SDS011;11117;48.644;9.006;2023-06-14T13:15:26;7.93;;;4.40;;
21905;SDS011;11117;48.644;9.006;2023-06-14T13:17:52;6.60;;;3.90;;
21905;SDS011;11117;48.644;9.006;2023-06-14T13:20:18;5.90;;;3.85;;
21905;SDS011;11117;48.644;9.006;2023-06-14T13:22:44;9.60;;;3.97;;
21905;SDS011;11117;48.644;9.006;2023-06-14T13:25:09;12.27;;;3.88;;
21905;SDS011;11117;48.644;9.006;2023-06-14T13:27:35;9.05;;;4.35;;
21905;SDS011;11117;48.644;9.006;2023-06-14T13:30:00;12.38;;;4.22;;
21905;SDS011;11117;48.644;9.006;2023-06-14T13:32:26;11.55;;;4.47;;
21905;SDS011;11117;48.644;9.006;2023-06-14T13:34:51;9.85;;;4.38;;
21905;SDS011;11117;48.644;9.006;2023-06-14T13:37:17;6.03;;;4.35;;
21905;SDS011;11117;48.644;9.006;2023-06-14T13:39:43;6.65;;;4.20;;
21905;SDS011;11117;48.644;9.006;2023-06-14T13:42:08;6.72;;;4.15;;
21905;SDS011;11117;48.644;9.006;2023-06-14T13:44:34;7.82;;;3.90;;
21905;SDS011;11117;48.644;9.006;2023-06-14T13:47:00;12.73;;;4.00;;
21905;SDS011;11117;48.644;9.006;2023-06-14T13:49:25;14.45;;;4.00;;
21905;SDS011;11117;48.644;9.006;2023-06-14T13:51:51;10.25;;;4.03;;
21905;SDS011;11117;48.644;9.006;2023-06-14T13:54:19;9.68;;;3.88;;
21905;SDS011;11117;48.644;9.006;2023-06-14T13:56:45;6.97;;;3.75;;
21905;SDS011;11117;48.644;9.006;2023-06-14T13:59:11;6.00;;;3.80;;
21905;SDS011;11117;48.644;9.006;2023-06-14T14:01:38;10.02;;;3.92;;
21905;SDS011;11117;48.644;9.006;2023-06-14T14:04:03;6.78;;;3.58;;
21905;SDS011;11117;48.644;9.006;2023-06-14T14:06:29;6.07;;;3.97;;
21905;SDS011;11117;48.644;9.006;2023-06-14T14:08:55;6.68;;;4.25;;
21905;SDS011;11117;48.644;9.006;2023-06-14T14:11:21;7.95;;;4.00;;
21905;SDS011;11117;48.644;9.006;2023-06-14T14:13:46;4.72;;;3.78;;
21905;SDS011;11117;48.644;9.006;2023-06-14T14:16:12;7.45;;;4.10;;
21905;SDS011;11117;48.644;9.006;2023-06-14T14:18:38;8.50;;;3.92;;
21905;SDS011;11117;48.644;9.006;2023-06-14T14:21:04;8.38;;;3.88;;
21905;SDS011;11117;48.644;9.006;2023-06-14T14:23:29;9.90;;;4.38;;
21905;SDS011;11117;48.644;9.006;2023-06-14T14:25:55;10.68;;;4.00;;
21905;SDS011;11117;48.644;9.006;2023-06-14T14:28:21;14.43;;;4.18;;
21905;SDS011;11117;48.644;9.006;2023-06-14T14:30:47;9.18;;;4.05;;
21905;SDS011;11117;48.644;9.006;2023-06-14T14:33:13;6.45;;;4.22;;
21905;SDS011;11117;48.644;9.006;2023-06-14T14:35:39;8.20;;;4.15;;
21905;SDS011;11117;48.644;9.006;2023-06-14T14:38:04;8.48;;;3.72;;
21905;SDS011;11117;48.644;9.006;2023-06-14T14:40:30;11.90;;;4.22;;
21905;SDS011;11117;48.644;9.006;2023-06-14T14:42:55;10.15;;;4.30;;
21905;SDS011;11117;48.644;9.006;2023-06-14T14:45:21;10.63;;;3.90;;
21905;SDS011;11117;48.644;9.006;2023-06-14T14:47:46;5.28;;;4.00;;
21905;SDS011;11117;48.644;9.006;2023-06-14T14:50:12;4.78;;;3.90;;
21905;SDS011;11117;48.644;9.006;2023-06-14T14:52:37;10.73;;;3.88;;
21905;SDS011;11117;48.644;9.006;2023-06-14T14:55:03;7.35;;;3.72;;